sensor_id;sensor_type;location;lat;lon;timestamp;temperature;humidity
24426;DHT22;12611;44.446;26.000;2023-05-07T00:02:06;18.30;62.50
24426;DHT22;12611;44.446;26.000;2023-05-07T00:04:35;18.20;62.70
24426;DHT22;12611;44.446;26.000;2023-05-07T00:07:05;18.20;63.00
24426;DHT22;12611;44.446;26.000;2023-05-07T00:09:33;18.20;62.90
24426;DHT22;12611;44.446;26.000;2023-05-07T00:12:02;18.10;62.90
24426;DHT22;12611;44.446;26.000;2023-05-07T00:14:30;18.00;62.80
24426;DHT22;12611;44.446;26.000;2023-05-07T00:17:00;18.00;62.80
24426;DHT22;12611;44.446;26.000;2023-05-07T00:19:28;17.90;62.90
24426;DHT22;12611;44.446;26.000;2023-05-07T00:21:56;17.90;63.00
24426;DHT22;12611;44.446;26.000;2023-05-07T00:24:25;17.80;63.20
24426;DHT22;12611;44.446;26.000;2023-05-07T00:26:53;17.80;63.30
24426;DHT22;12611;44.446;26.000;2023-05-07T00:29:21;17.70;63.10
24426;DHT22;12611;44.446;26.000;2023-05-07T00:31:50;17.70;63.30
24426;DHT22;12611;44.446;26.000;2023-05-07T00:34:20;17.60;63.30
24426;DHT22;12611;44.446;26.000;2023-05-07T00:36:49;17.60;63.30
24426;DHT22;12611;44.446;26.000;2023-05-07T00:39:17;17.50;63.30
24426;DHT22;12611;44.446;26.000;2023-05-07T00:41:45;17.50;63.40
24426;DHT22;12611;44.446;26.000;2023-05-07T00:44:14;17.40;63.50
24426;DHT22;12611;44.446;26.000;2023-05-07T00:46:42;17.40;63.60
24426;DHT22;12611;44.446;26.000;2023-05-07T00:49:11;17.40;64.20
24426;DHT22;12611;44.446;26.000;2023-05-07T00:51:41;17.30;64.30
24426;DHT22;12611;44.446;26.000;2023-05-07T00:54:10;17.20;64.70
24426;DHT22;12611;44.446;26.000;2023-05-07T00:56:38;17.20;64.60
24426;DHT22;12611;44.446;26.000;2023-05-07T00:59:07;17.10;64.60
24426;DHT22;12611;44.446;26.000;2023-05-07T01:01:36;17.10;64.70
24426;DHT22;12611;44.446;26.000;2023-05-07T01:04:04;17.00;64.90
24426;DHT22;12611;44.446;26.000;2023-05-07T01:06:33;17.00;65.70
24426;DHT22;12611;44.446;26.000;2023-05-07T01:09:04;16.90;65.60
24426;DHT22;12611;44.446;26.000;2023-05-07T01:11:32;16.90;65.50
24426;DHT22;12611;44.446;26.000;2023-05-07T01:14:01;16.80;65.60
24426;DHT22;12611;44.446;26.000;2023-05-07T01:16:30;16.80;65.50
24426;DHT22;12611;44.446;26.000;2023-05-07T01:19:00;16.70;65.80
24426;DHT22;12611;44.446;26.000;2023-05-07T01:21:32;16.70;65.90
24426;DHT22;12611;44.446;26.000;2023-05-07T01:24:03;16.70;65.90
24426;DHT22;12611;44.446;26.000;2023-05-07T01:26:32;16.60;66.00
24426;DHT22;12611;44.446;26.000;2023-05-07T01:29:00;16.60;66.20
24426;DHT22;12611;44.446;26.000;2023-05-07T01:31:29;16.60;66.10
24426;DHT22;12611;44.446;26.000;2023-05-07T01:33:58;16.50;66.60
24426;DHT22;12611;44.446;26.000;2023-05-07T01:36:28;16.50;66.50
24426;DHT22;12611;44.446;26.000;2023-05-07T01:38:58;16.50;66.80
24426;DHT22;12611;44.446;26.000;2023-05-07T01:41:28;16.40;66.70
24426;DHT22;12611;44.446;26.000;2023-05-07T01:43:56;16.40;66.80
24426;DHT22;12611;44.446;26.000;2023-05-07T01:46:26;16.40;66.90
24426;DHT22;12611;44.446;26.000;2023-05-07T01:48:55;16.30;66.70
24426;DHT22;12611;44.446;26.000;2023-05-07T01:51:23;16.30;67.10
24426;DHT22;12611;44.446;26.000;2023-05-07T01:53:53;16.30;67.10
24426;DHT22;12611;44.446;26.000;2023-05-07T01:56:21;16.20;67.10
24426;DHT22;12611;44.446;26.000;2023-05-07T01:58:52;16.20;67.10
24426;DHT22;12611;44.446;26.000;2023-05-07T02:01:20;16.20;67.30
24426;DHT22;12611;44.446;26.000;2023-05-07T02:03:49;16.10;67.30
24426;DHT22;12611;44.446;26.000;2023-05-07T02:06:17;16.10;67.50
24426;DHT22;12611;44.446;26.000;2023-05-07T02:08:46;16.10;67.60
24426;DHT22;12611;44.446;26.000;2023-05-07T02:11:15;16.10;67.60
24426;DHT22;12611;44.446;26.000;2023-05-07T02:13:43;16.10;67.70
24426;DHT22;12611;44.446;26.000;2023-05-07T02:16:13;16.00;67.70
24426;DHT22;12611;44.446;26.000;2023-05-07T02:18:41;16.00;67.70
24426;DHT22;12611;44.446;26.000;2023-05-07T02:21:09;16.00;68.30
24426;DHT22;12611;44.446;26.000;2023-05-07T02:23:38;15.90;70.00
24426;DHT22;12611;44.446;26.000;2023-05-07T02:26:06;15.90;69.90
24426;DHT22;12611;44.446;26.000;2023-05-07T02:28:35;15.80;70.00
24426;DHT22;12611;44.446;26.000;2023-05-07T02:31:03;15.80;70.50
24426;DHT22;12611;44.446;26.000;2023-05-07T02:33:33;15.70;71.60
24426;DHT22;12611;44.446;26.000;2023-05-07T02:36:07;15.70;71.20
24426;DHT22;12611;44.446;26.000;2023-05-07T02:38:36;15.70;71.00
24426;DHT22;12611;44.446;26.000;2023-05-07T02:41:04;15.70;71.10
24426;DHT22;12611;44.446;26.000;2023-05-07T02:43:33;15.60;71.10
24426;DHT22;12611;44.446;26.000;2023-05-07T02:46:02;15.60;71.30
24426;DHT22;12611;44.446;26.000;2023-05-07T02:48:32;15.60;71.10
24426;DHT22;12611;44.446;26.000;2023-05-07T02:51:01;15.50;71.40
24426;DHT22;12611;44.446;26.000;2023-05-07T02:53:30;15.50;71.60
24426;DHT22;12611;44.446;26.000;2023-05-07T02:55:59;15.50;72.20
24426;DHT22;12611;44.446;26.000;2023-05-07T02:58:27;15.50;72.00
24426;DHT22;12611;44.446;26.000;2023-05-07T03:00:56;15.50;71.60
24426;DHT22;12611;44.446;26.000;2023-05-07T03:03:24;15.40;71.40
24426;DHT22;12611;44.446;26.000;2023-05-07T03:05:54;15.40;71.30
24426;DHT22;12611;44.446;26.000;2023-05-07T03:08:22;15.40;71.30
24426;DHT22;12611;44.446;26.000;2023-05-07T03:10:51;15.40;71.40
24426;DHT22;12611;44.446;26.000;2023-05-07T03:13:19;15.40;71.60
24426;DHT22;12611;44.446;26.000;2023-05-07T03:15:48;15.40;71.60
24426;DHT22;12611;44.446;26.000;2023-05-07T03:18:16;15.40;71.70
24426;DHT22;12611;44.446;26.000;2023-05-07T03:20:45;15.30;72.20
24426;DHT22;12611;44.446;26.000;2023-05-07T03:23:15;15.30;72.00
24426;DHT22;12611;44.446;26.000;2023-05-07T03:25:43;15.30;72.00
24426;DHT22;12611;44.446;26.000;2023-05-07T03:28:11;15.30;71.90
24426;DHT22;12611;44.446;26.000;2023-05-07T03:30:40;15.30;71.90
24426;DHT22;12611;44.446;26.000;2023-05-07T03:33:08;15.30;71.90
24426;DHT22;12611;44.446;26.000;2023-05-07T03:35:36;15.30;71.90
24426;DHT22;12611;44.446;26.000;2023-05-07T03:38:06;15.30;72.10
24426;DHT22;12611;44.446;26.000;2023-05-07T03:40:35;15.40;71.90
24426;DHT22;12611;44.446;26.000;2023-05-07T03:43:04;15.40;72.10
24426;DHT22;12611;44.446;26.000;2023-05-07T03:45:32;15.40;72.30
24426;DHT22;12611;44.446;26.000;2023-05-07T03:48:01;15.40;72.30
24426;DHT22;12611;44.446;26.000;2023-05-07T03:50:29;15.40;72.40
24426;DHT22;12611;44.446;26.000;2023-05-07T03:52:57;15.40;72.50
24426;DHT22;12611;44.446;26.000;2023-05-07T03:55:25;15.40;72.50
24426;DHT22;12611;44.446;26.000;2023-05-07T03:57:55;15.40;72.50
24426;DHT22;12611;44.446;26.000;2023-05-07T04:00:24;15.50;72.50
24426;DHT22;12611;44.446;26.000;2023-05-07T04:02:52;15.50;72.90
24426;DHT22;12611;44.446;26.000;2023-05-07T04:05:20;15.50;73.00
24426;DHT22;12611;44.446;26.000;2023-05-07T04:07:49;15.50;72.70
24426;DHT22;12611;44.446;26.000;2023-05-07T04:10:17;15.60;72.80
24426;DHT22;12611;44.446;26.000;2023-05-07T04:12:45;15.60;73.00
24426;DHT22;12611;44.446;26.000;2023-05-07T04:15:15;15.60;72.90
24426;DHT22;12611;44.446;26.000;2023-05-07T04:17:44;15.60;72.90
24426;DHT22;12611;44.446;26.000;2023-05-07T04:20:15;15.70;72.80
24426;DHT22;12611;44.446;26.000;2023-05-07T04:22:43;15.70;72.70
24426;DHT22;12611;44.446;26.000;2023-05-07T04:25:11;15.70;72.70
24426;DHT22;12611;44.446;26.000;2023-05-07T04:27:40;15.80;72.70
24426;DHT22;12611;44.446;26.000;2023-05-07T04:30:09;15.80;72.80
24426;DHT22;12611;44.446;26.000;2023-05-07T04:32:40;15.80;72.80
24426;DHT22;12611;44.446;26.000;2023-05-07T04:35:08;15.80;72.90
24426;DHT22;12611;44.446;26.000;2023-05-07T04:37:37;15.80;72.90
24426;DHT22;12611;44.446;26.000;2023-05-07T04:40:09;15.90;73.00
24426;DHT22;12611;44.446;26.000;2023-05-07T04:42:38;15.90;72.90
24426;DHT22;12611;44.446;26.000;2023-05-07T04:45:09;16.00;72.80
24426;DHT22;12611;44.446;26.000;2023-05-07T04:47:40;16.00;72.70
24426;DHT22;12611;44.446;26.000;2023-05-07T04:50:10;16.00;72.60
24426;DHT22;12611;44.446;26.000;2023-05-07T04:52:42;16.10;72.60
24426;DHT22;12611;44.446;26.000;2023-05-07T04:55:10;16.10;72.70
24426;DHT22;12611;44.446;26.000;2023-05-07T04:57:39;16.20;73.40
24426;DHT22;12611;44.446;26.000;2023-05-07T05:00:09;16.20;72.80
24426;DHT22;12611;44.446;26.000;2023-05-07T05:02:42;16.30;72.50
24426;DHT22;12611;44.446;26.000;2023-05-07T05:05:11;16.40;72.30
24426;DHT22;12611;44.446;26.000;2023-05-07T05:07:42;16.40;72.20
24426;DHT22;12611;44.446;26.000;2023-05-07T05:10:15;16.40;72.10
24426;DHT22;12611;44.446;26.000;2023-05-07T05:12:49;16.50;71.90
24426;DHT22;12611;44.446;26.000;2023-05-07T05:15:17;16.60;71.50
24426;DHT22;12611;44.446;26.000;2023-05-07T05:17:47;16.70;71.40
24426;DHT22;12611;44.446;26.000;2023-05-07T05:20:16;16.70;71.20
24426;DHT22;12611;44.446;26.000;2023-05-07T05:22:45;16.80;70.50
24426;DHT22;12611;44.446;26.000;2023-05-07T05:25:13;16.80;69.90
24426;DHT22;12611;44.446;26.000;2023-05-07T05:27:42;16.90;69.60
24426;DHT22;12611;44.446;26.000;2023-05-07T05:30:11;17.00;69.60
24426;DHT22;12611;44.446;26.000;2023-05-07T05:32:40;17.10;69.00
24426;DHT22;12611;44.446;26.000;2023-05-07T05:35:13;17.10;68.50
24426;DHT22;12611;44.446;26.000;2023-05-07T05:37:41;17.10;68.50
24426;DHT22;12611;44.446;26.000;2023-05-07T05:40:10;17.20;68.70
24426;DHT22;12611;44.446;26.000;2023-05-07T05:42:39;17.30;68.80
24426;DHT22;12611;44.446;26.000;2023-05-07T05:45:09;17.30;68.50
24426;DHT22;12611;44.446;26.000;2023-05-07T05:47:37;17.40;68.50
24426;DHT22;12611;44.446;26.000;2023-05-07T05:50:07;17.50;68.30
24426;DHT22;12611;44.446;26.000;2023-05-07T05:52:38;17.60;68.00
24426;DHT22;12611;44.446;26.000;2023-05-07T05:55:08;17.70;67.80
24426;DHT22;12611;44.446;26.000;2023-05-07T05:57:36;17.70;67.50
24426;DHT22;12611;44.446;26.000;2023-05-07T06:00:06;17.80;66.00
24426;DHT22;12611;44.446;26.000;2023-05-07T06:02:35;17.90;66.70
24426;DHT22;12611;44.446;26.000;2023-05-07T06:05:04;18.00;66.60
24426;DHT22;12611;44.446;26.000;2023-05-07T06:07:33;18.00;66.30
24426;DHT22;12611;44.446;26.000;2023-05-07T06:10:03;18.10;66.40
24426;DHT22;12611;44.446;26.000;2023-05-07T06:12:32;18.20;66.50
24426;DHT22;12611;44.446;26.000;2023-05-07T06:15:00;18.30;66.50
24426;DHT22;12611;44.446;26.000;2023-05-07T06:17:29;18.30;66.00
24426;DHT22;12611;44.446;26.000;2023-05-07T06:19:57;18.40;65.90
24426;DHT22;12611;44.446;26.000;2023-05-07T06:22:26;18.50;64.90
24426;DHT22;12611;44.446;26.000;2023-05-07T06:24:54;18.60;65.20
24426;DHT22;12611;44.446;26.000;2023-05-07T06:27:24;18.70;65.10
24426;DHT22;12611;44.446;26.000;2023-05-07T06:29:52;18.80;65.20
24426;DHT22;12611;44.446;26.000;2023-05-07T06:32:23;18.80;64.60
24426;DHT22;12611;44.446;26.000;2023-05-07T06:34:54;18.90;64.50
24426;DHT22;12611;44.446;26.000;2023-05-07T06:37:22;18.90;64.10
24426;DHT22;12611;44.446;26.000;2023-05-07T06:39:50;19.10;63.90
24426;DHT22;12611;44.446;26.000;2023-05-07T06:42:19;19.10;63.50
24426;DHT22;12611;44.446;26.000;2023-05-07T06:44:51;19.20;63.40
24426;DHT22;12611;44.446;26.000;2023-05-07T06:47:19;19.20;63.50
24426;DHT22;12611;44.446;26.000;2023-05-07T06:49:47;19.30;63.20
24426;DHT22;12611;44.446;26.000;2023-05-07T06:52:16;19.40;63.00
24426;DHT22;12611;44.446;26.000;2023-05-07T06:54:44;19.50;63.20
24426;DHT22;12611;44.446;26.000;2023-05-07T06:57:12;19.60;63.00
24426;DHT22;12611;44.446;26.000;2023-05-07T06:59:41;19.60;62.30
24426;DHT22;12611;44.446;26.000;2023-05-07T07:02:10;19.70;62.20
24426;DHT22;12611;44.446;26.000;2023-05-07T07:04:39;19.80;62.20
24426;DHT22;12611;44.446;26.000;2023-05-07T07:07:08;19.90;62.10
24426;DHT22;12611;44.446;26.000;2023-05-07T07:09:37;19.90;61.70
24426;DHT22;12611;44.446;26.000;2023-05-07T07:12:05;20.00;59.80
24426;DHT22;12611;44.446;26.000;2023-05-07T07:14:33;20.00;59.70
24426;DHT22;12611;44.446;26.000;2023-05-07T07:17:02;20.10;59.30
24426;DHT22;12611;44.446;26.000;2023-05-07T07:19:33;20.10;59.10
24426;DHT22;12611;44.446;26.000;2023-05-07T07:22:01;20.10;58.10
24426;DHT22;12611;44.446;26.000;2023-05-07T07:24:29;20.20;57.60
24426;DHT22;12611;44.446;26.000;2023-05-07T07:26:58;20.30;58.10
24426;DHT22;12611;44.446;26.000;2023-05-07T07:29:26;20.30;58.10
24426;DHT22;12611;44.446;26.000;2023-05-07T07:31:54;20.40;59.00
24426;DHT22;12611;44.446;26.000;2023-05-07T07:34:23;20.50;58.10
24426;DHT22;12611;44.446;26.000;2023-05-07T07:36:52;20.50;57.20
24426;DHT22;12611;44.446;26.000;2023-05-07T07:39:21;20.50;57.30
24426;DHT22;12611;44.446;26.000;2023-05-07T07:41:49;20.60;57.40
24426;DHT22;12611;44.446;26.000;2023-05-07T07:44:17;20.60;57.70
24426;DHT22;12611;44.446;26.000;2023-05-07T07:46:46;20.60;57.70
24426;DHT22;12611;44.446;26.000;2023-05-07T07:49:14;20.70;57.80
24426;DHT22;12611;44.446;26.000;2023-05-07T07:51:42;20.80;58.00
24426;DHT22;12611;44.446;26.000;2023-05-07T07:54:12;20.80;58.10
24426;DHT22;12611;44.446;26.000;2023-05-07T07:56:41;20.90;57.90
24426;DHT22;12611;44.446;26.000;2023-05-07T07:59:09;20.90;57.50
24426;DHT22;12611;44.446;26.000;2023-05-07T08:01:37;21.00;57.40
24426;DHT22;12611;44.446;26.000;2023-05-07T08:04:06;21.00;57.40
24426;DHT22;12611;44.446;26.000;2023-05-07T08:06:34;21.10;57.70
24426;DHT22;12611;44.446;26.000;2023-05-07T08:09:03;21.10;57.20
24426;DHT22;12611;44.446;26.000;2023-05-07T08:11:34;21.10;57.10
24426;DHT22;12611;44.446;26.000;2023-05-07T08:14:02;21.00;57.20
24426;DHT22;12611;44.446;26.000;2023-05-07T08:16:30;21.10;57.60
24426;DHT22;12611;44.446;26.000;2023-05-07T08:18:59;21.10;57.50
24426;DHT22;12611;44.446;26.000;2023-05-07T08:21:27;21.20;57.80
24426;DHT22;12611;44.446;26.000;2023-05-07T08:23:57;21.20;57.80
24426;DHT22;12611;44.446;26.000;2023-05-07T08:26:25;21.20;57.50
24426;DHT22;12611;44.446;26.000;2023-05-07T08:28:55;21.20;57.20
24426;DHT22;12611;44.446;26.000;2023-05-07T08:31:23;21.10;56.90
24426;DHT22;12611;44.446;26.000;2023-05-07T08:33:52;21.20;57.20
24426;DHT22;12611;44.446;26.000;2023-05-07T08:36:20;21.20;57.30
24426;DHT22;12611;44.446;26.000;2023-05-07T08:38:51;21.20;57.30
24426;DHT22;12611;44.446;26.000;2023-05-07T08:41:19;21.30;57.30
24426;DHT22;12611;44.446;26.000;2023-05-07T08:43:49;21.30;57.60
24426;DHT22;12611;44.446;26.000;2023-05-07T08:46:20;21.40;57.80
24426;DHT22;12611;44.446;26.000;2023-05-07T08:48:49;21.50;57.90
24426;DHT22;12611;44.446;26.000;2023-05-07T08:51:19;21.50;58.00
24426;DHT22;12611;44.446;26.000;2023-05-07T08:53:49;21.50;57.90
24426;DHT22;12611;44.446;26.000;2023-05-07T08:56:17;21.50;56.70
24426;DHT22;12611;44.446;26.000;2023-05-07T08:58:48;21.50;56.50
24426;DHT22;12611;44.446;26.000;2023-05-07T09:01:18;21.60;56.90
24426;DHT22;12611;44.446;26.000;2023-05-07T09:03:47;21.60;57.30
24426;DHT22;12611;44.446;26.000;2023-05-07T09:06:15;21.70;57.60
24426;DHT22;12611;44.446;26.000;2023-05-07T09:08:49;21.70;57.60
24426;DHT22;12611;44.446;26.000;2023-05-07T09:11:20;21.80;57.70
24426;DHT22;12611;44.446;26.000;2023-05-07T09:13:52;21.80;57.80
24426;DHT22;12611;44.446;26.000;2023-05-07T09:16:23;21.90;57.20
24426;DHT22;12611;44.446;26.000;2023-05-07T09:18:53;21.90;56.60
24426;DHT22;12611;44.446;26.000;2023-05-07T09:21:22;21.90;56.00
24426;DHT22;12611;44.446;26.000;2023-05-07T09:23:51;21.90;56.00
24426;DHT22;12611;44.446;26.000;2023-05-07T09:26:22;21.90;55.50
24426;DHT22;12611;44.446;26.000;2023-05-07T09:28:50;22.00;55.50
24426;DHT22;12611;44.446;26.000;2023-05-07T09:31:19;22.00;55.70
24426;DHT22;12611;44.446;26.000;2023-05-07T09:33:52;22.00;55.60
24426;DHT22;12611;44.446;26.000;2023-05-07T09:36:22;22.00;54.60
24426;DHT22;12611;44.446;26.000;2023-05-07T09:38:51;22.10;55.30
24426;DHT22;12611;44.446;26.000;2023-05-07T09:41:19;22.10;55.10
24426;DHT22;12611;44.446;26.000;2023-05-07T09:43:53;22.10;54.70
24426;DHT22;12611;44.446;26.000;2023-05-07T09:46:27;22.10;55.00
24426;DHT22;12611;44.446;26.000;2023-05-07T09:48:58;22.20;55.40
24426;DHT22;12611;44.446;26.000;2023-05-07T09:51:30;22.20;54.90
24426;DHT22;12611;44.446;26.000;2023-05-07T09:54:02;22.20;55.30
24426;DHT22;12611;44.446;26.000;2023-05-07T09:56:33;22.30;55.00
24426;DHT22;12611;44.446;26.000;2023-05-07T09:59:03;22.20;55.20
24426;DHT22;12611;44.446;26.000;2023-05-07T10:01:33;22.20;54.30
24426;DHT22;12611;44.446;26.000;2023-05-07T10:04:05;22.30;54.70
24426;DHT22;12611;44.446;26.000;2023-05-07T10:06:35;22.30;54.60
24426;DHT22;12611;44.446;26.000;2023-05-07T10:09:04;22.30;55.00
24426;DHT22;12611;44.446;26.000;2023-05-07T10:11:33;22.40;55.70
24426;DHT22;12611;44.446;26.000;2023-05-07T10:14:02;22.50;54.90
24426;DHT22;12611;44.446;26.000;2023-05-07T10:16:33;22.50;55.20
24426;DHT22;12611;44.446;26.000;2023-05-07T10:19:05;22.50;54.50
24426;DHT22;12611;44.446;26.000;2023-05-07T10:21:36;22.60;54.40
24426;DHT22;12611;44.446;26.000;2023-05-07T10:24:08;22.60;54.80
24426;DHT22;12611;44.446;26.000;2023-05-07T10:26:42;22.60;54.60
24426;DHT22;12611;44.446;26.000;2023-05-07T10:29:14;22.60;54.30
24426;DHT22;12611;44.446;26.000;2023-05-07T10:31:58;22.70;54.70
24426;DHT22;12611;44.446;26.000;2023-05-07T10:34:34;22.70;54.30
24426;DHT22;12611;44.446;26.000;2023-05-07T10:37:04;22.70;54.10
24426;DHT22;12611;44.446;26.000;2023-05-07T10:39:33;22.80;54.60
24426;DHT22;12611;44.446;26.000;2023-05-07T10:42:09;22.80;54.30
24426;DHT22;12611;44.446;26.000;2023-05-07T10:44:37;22.80;54.70
24426;DHT22;12611;44.446;26.000;2023-05-07T10:47:07;22.90;55.10
24426;DHT22;12611;44.446;26.000;2023-05-07T10:52:45;23.00;54.00
24426;DHT22;12611;44.446;26.000;2023-05-07T10:55:20;23.00;53.70
24426;DHT22;12611;44.446;26.000;2023-05-07T10:57:52;23.10;54.20
24426;DHT22;12611;44.446;26.000;2023-05-07T11:00:42;23.10;54.40
24426;DHT22;12611;44.446;26.000;2023-05-07T11:03:11;23.10;54.20
24426;DHT22;12611;44.446;26.000;2023-05-07T11:05:41;23.20;54.20
24426;DHT22;12611;44.446;26.000;2023-05-07T11:08:10;23.30;54.50
24426;DHT22;12611;44.446;26.000;2023-05-07T11:10:49;23.30;54.20
24426;DHT22;12611;44.446;26.000;2023-05-07T11:13:18;23.30;55.20
24426;DHT22;12611;44.446;26.000;2023-05-07T11:15:47;23.40;55.50
24426;DHT22;12611;44.446;26.000;2023-05-07T11:18:17;23.40;55.30
24426;DHT22;12611;44.446;26.000;2023-05-07T11:20:57;23.40;54.40
24426;DHT22;12611;44.446;26.000;2023-05-07T11:26:45;23.60;54.40
24426;DHT22;12611;44.446;26.000;2023-05-07T11:29:15;23.70;54.70
24426;DHT22;12611;44.446;26.000;2023-05-07T11:31:51;23.60;53.20
24426;DHT22;12611;44.446;26.000;2023-05-07T11:34:23;23.70;54.70
24426;DHT22;12611;44.446;26.000;2023-05-07T11:36:54;23.80;54.70
24426;DHT22;12611;44.446;26.000;2023-05-07T11:39:24;23.90;54.40
24426;DHT22;12611;44.446;26.000;2023-05-07T11:41:53;23.90;53.60
24426;DHT22;12611;44.446;26.000;2023-05-07T11:44:21;23.90;53.80
24426;DHT22;12611;44.446;26.000;2023-05-07T11:46:49;24.00;54.40
24426;DHT22;12611;44.446;26.000;2023-05-07T11:49:18;24.00;53.60
24426;DHT22;12611;44.446;26.000;2023-05-07T11:51:46;24.00;53.40
24426;DHT22;12611;44.446;26.000;2023-05-07T11:54:19;24.00;53.30
24426;DHT22;12611;44.446;26.000;2023-05-07T11:56:49;24.00;53.20
24426;DHT22;12611;44.446;26.000;2023-05-07T11:59:18;24.10;53.90
24426;DHT22;12611;44.446;26.000;2023-05-07T12:01:47;24.10;54.40
24426;DHT22;12611;44.446;26.000;2023-05-07T12:04:19;24.30;54.70
24426;DHT22;12611;44.446;26.000;2023-05-07T12:06:49;24.30;54.80
24426;DHT22;12611;44.446;26.000;2023-05-07T12:09:19;24.50;54.90
24426;DHT22;12611;44.446;26.000;2023-05-07T12:11:47;24.60;53.90
24426;DHT22;12611;44.446;26.000;2023-05-07T12:14:16;24.60;52.90
24426;DHT22;12611;44.446;26.000;2023-05-07T12:16:44;24.70;53.10
24426;DHT22;12611;44.446;26.000;2023-05-07T12:19:13;24.60;51.90
24426;DHT22;12611;44.446;26.000;2023-05-07T12:21:42;24.60;52.60
24426;DHT22;12611;44.446;26.000;2023-05-07T12:24:14;24.80;52.10
24426;DHT22;12611;44.446;26.000;2023-05-07T12:26:45;24.80;52.70
24426;DHT22;12611;44.446;26.000;2023-05-07T12:29:13;24.80;52.30
24426;DHT22;12611;44.446;26.000;2023-05-07T12:31:42;24.80;52.80
24426;DHT22;12611;44.446;26.000;2023-05-07T12:34:11;24.70;53.10
24426;DHT22;12611;44.446;26.000;2023-05-07T12:36:40;24.60;52.60
24426;DHT22;12611;44.446;26.000;2023-05-07T12:39:08;24.70;52.60
24426;DHT22;12611;44.446;26.000;2023-05-07T12:41:53;24.70;52.70
24426;DHT22;12611;44.446;26.000;2023-05-07T12:44:22;24.70;52.70
24426;DHT22;12611;44.446;26.000;2023-05-07T12:46:53;24.90;52.70
24426;DHT22;12611;44.446;26.000;2023-05-07T12:49:25;24.90;52.50
24426;DHT22;12611;44.446;26.000;2023-05-07T12:51:53;24.80;52.10
24426;DHT22;12611;44.446;26.000;2023-05-07T12:54:29;24.90;52.60
24426;DHT22;12611;44.446;26.000;2023-05-07T12:57:07;24.90;53.20
24426;DHT22;12611;44.446;26.000;2023-05-07T12:59:37;24.90;53.10
24426;DHT22;12611;44.446;26.000;2023-05-07T13:02:07;24.90;52.90
24426;DHT22;12611;44.446;26.000;2023-05-07T13:04:35;25.00;52.10
24426;DHT22;12611;44.446;26.000;2023-05-07T13:07:04;25.00;52.10
24426;DHT22;12611;44.446;26.000;2023-05-07T13:09:32;25.00;52.00
24426;DHT22;12611;44.446;26.000;2023-05-07T13:12:00;25.10;51.90
24426;DHT22;12611;44.446;26.000;2023-05-07T13:14:30;25.20;52.00
24426;DHT22;12611;44.446;26.000;2023-05-07T13:16:59;25.30;52.10
24426;DHT22;12611;44.446;26.000;2023-05-07T13:19:27;25.40;52.10
24426;DHT22;12611;44.446;26.000;2023-05-07T13:22:00;25.20;50.90
24426;DHT22;12611;44.446;26.000;2023-05-07T13:24:28;25.20;51.30
24426;DHT22;12611;44.446;26.000;2023-05-07T13:26:57;25.30;51.40
24426;DHT22;12611;44.446;26.000;2023-05-07T13:29:25;25.30;51.80
24426;DHT22;12611;44.446;26.000;2023-05-07T13:31:59;25.30;51.20
24426;DHT22;12611;44.446;26.000;2023-05-07T13:34:28;25.40;51.00
24426;DHT22;12611;44.446;26.000;2023-05-07T13:36:56;25.40;51.30
24426;DHT22;12611;44.446;26.000;2023-05-07T13:39:26;25.40;50.80
24426;DHT22;12611;44.446;26.000;2023-05-07T13:41:55;25.50;51.00
24426;DHT22;12611;44.446;26.000;2023-05-07T13:44:23;25.40;50.90
24426;DHT22;12611;44.446;26.000;2023-05-07T13:46:52;25.50;51.30
24426;DHT22;12611;44.446;26.000;2023-05-07T13:49:21;25.40;50.40
24426;DHT22;12611;44.446;26.000;2023-05-07T13:51:51;25.30;51.20
24426;DHT22;12611;44.446;26.000;2023-05-07T13:54:19;25.20;51.40
24426;DHT22;12611;44.446;26.000;2023-05-07T13:56:47;25.30;51.70
24426;DHT22;12611;44.446;26.000;2023-05-07T13:59:16;25.40;51.90
24426;DHT22;12611;44.446;26.000;2023-05-07T14:01:44;25.40;51.90
24426;DHT22;12611;44.446;26.000;2023-05-07T14:04:13;25.40;51.60
24426;DHT22;12611;44.446;26.000;2023-05-07T14:06:45;25.50;51.60
24426;DHT22;12611;44.446;26.000;2023-05-07T14:09:13;25.70;51.00
24426;DHT22;12611;44.446;26.000;2023-05-07T14:11:45;25.80;51.20
24426;DHT22;12611;44.446;26.000;2023-05-07T14:14:14;25.70;51.20
24426;DHT22;12611;44.446;26.000;2023-05-07T14:16:45;25.70;51.30
24426;DHT22;12611;44.446;26.000;2023-05-07T14:19:19;25.70;51.00
24426;DHT22;12611;44.446;26.000;2023-05-07T14:21:51;25.80;50.90
24426;DHT22;12611;44.446;26.000;2023-05-07T14:24:20;25.90;50.90
24426;DHT22;12611;44.446;26.000;2023-05-07T14:27:03;26.20;50.40
24426;DHT22;12611;44.446;26.000;2023-05-07T14:29:32;26.80;49.40
24426;DHT22;12611;44.446;26.000;2023-05-07T14:32:04;26.90;49.00
24426;DHT22;12611;44.446;26.000;2023-05-07T14:34:33;26.90;48.90
24426;DHT22;12611;44.446;26.000;2023-05-07T14:37:10;26.70;49.50
24426;DHT22;12611;44.446;26.000;2023-05-07T14:39:41;26.80;49.40
24426;DHT22;12611;44.446;26.000;2023-05-07T14:42:09;26.60;49.20
24426;DHT22;12611;44.446;26.000;2023-05-07T14:44:40;26.30;49.50
24426;DHT22;12611;44.446;26.000;2023-05-07T14:47:08;26.10;51.00
24426;DHT22;12611;44.446;26.000;2023-05-07T14:49:36;26.00;50.50
24426;DHT22;12611;44.446;26.000;2023-05-07T14:52:06;26.10;50.80
24426;DHT22;12611;44.446;26.000;2023-05-07T14:54:37;25.90;50.70
24426;DHT22;12611;44.446;26.000;2023-05-07T14:57:08;25.80;51.00
24426;DHT22;12611;44.446;26.000;2023-05-07T14:59:37;25.70;50.90
24426;DHT22;12611;44.446;26.000;2023-05-07T15:02:06;25.70;51.20
24426;DHT22;12611;44.446;26.000;2023-05-07T15:04:35;25.60;51.30
24426;DHT22;12611;44.446;26.000;2023-05-07T15:07:08;25.50;51.50
24426;DHT22;12611;44.446;26.000;2023-05-07T15:09:48;25.40;51.60
24426;DHT22;12611;44.446;26.000;2023-05-07T15:12:17;25.40;51.90
24426;DHT22;12611;44.446;26.000;2023-05-07T15:14:45;25.40;52.00
24426;DHT22;12611;44.446;26.000;2023-05-07T15:17:14;25.40;52.10
24426;DHT22;12611;44.446;26.000;2023-05-07T15:19:43;25.40;52.40
24426;DHT22;12611;44.446;26.000;2023-05-07T15:22:12;25.30;52.10
24426;DHT22;12611;44.446;26.000;2023-05-07T15:24:41;25.30;51.90
24426;DHT22;12611;44.446;26.000;2023-05-07T15:27:10;25.30;52.10
24426;DHT22;12611;44.446;26.000;2023-05-07T15:29:42;25.30;52.10
24426;DHT22;12611;44.446;26.000;2023-05-07T15:32:13;25.30;52.10
24426;DHT22;12611;44.446;26.000;2023-05-07T15:34:42;25.30;52.20
24426;DHT22;12611;44.446;26.000;2023-05-07T15:37:12;25.30;52.80